Time;durP1;ratioP1;P1;durP2;ratioP2;P2;SDS_P1;SDS_P2;PMS_P1;PMS_P2;Temp;Humidity;BMP_temperature;BMP_pressure;BME280_temperature;BME280_humidity;BME280_pressure;Samples;Min_cycle;Max_cycle;Signal;HPM_P1;HPM_P2
2023/01/04 00:01:49;;;;;;;7.32;4.20;;;;;;;;;;5048592;28;20020;-77
2023/01/04 00:04:15;;;;;;;12.65;4.00;;;;;;;;;;5046355;28;20139;-77
2023/01/04 00:06:41;;;;;;;13.68;4.13;;;;;;;;;;5045444;28;20624;-77
2023/01/04 00:09:07;;;;;;;12.43;3.85;;;;;;;;;;5041560;28;20414;-77
2023/01/04 00:11:34;;;;;;;12.90;3.65;;;;;;;;;;5046081;28;20024;-77
2023/01/04 00:14:00;;;;;;;13.27;4.65;;;;;;;;;;5062334;28;20033;-78
2023/01/04 00:16:27;;;;;;;11.07;4.20;;;;;;;;;;5047680;28;20020;-77
2023/01/04 00:18:54;;;;;;;10.60;3.90;;;;;;;;;;5049140;28;20040;-78
2023/01/04 00:21:21;;;;;;;13.60;5.00;;;;;;;;;;5042348;28;20025;-77
2023/01/04 00:23:48;;;;;;;14.23;3.60;;;;;;;;;;5045924;28;20037;-77
2023/01/04 00:26:16;;;;;;;10.18;4.60;;;;;;;;;;5030084;28;20029;-78
2023/01/04 00:28:42;;;;;;;13.65;4.43;;;;;;;;;;5047842;28;20580;-77
2023/01/04 00:31:10;;;;;;;12.60;4.80;;;;;;;;;;5047490;28;20017;-77
2023/01/04 00:33:36;;;;;;;12.23;5.07;;;;;;;;;;5044177;28;20490;-77
2023/01/04 00:36:03;;;;;;;14.93;3.78;;;;;;;;;;5063067;28;20029;-77
2023/01/04 00:38:29;;;;;;;10.90;4.57;;;;;;;;;;5047650;28;20028;-77
2023/01/04 00:40:55;;;;;;;20.00;5.35;;;;;;;;;;5049158;28;20032;-77
2023/01/04 00:43:22;;;;;;;10.15;3.40;;;;;;;;;;5039080;28;20030;-77
2023/01/04 00:45:48;;;;;;;14.88;4.38;;;;;;;;;;5039863;28;20018;-77
2023/01/04 00:48:14;;;;;;;8.15;3.50;;;;;;;;;;5034759;28;20112;-77
2023/01/04 00:50:40;;;;;;;16.15;4.82;;;;;;;;;;5047327;28;20594;-78
2023/01/04 00:53:06;;;;;;;16.20;5.28;;;;;;;;;;5048471;28;20032;-78
2023/01/04 00:55:32;;;;;;;11.80;3.65;;;;;;;;;;5040730;28;20045;-78
2023/01/04 00:57:58;;;;;;;12.45;4.25;;;;;;;;;;5045303;28;20108;-77
2023/01/04 01:00:24;;;;;;;10.27;3.47;;;;;;;;;;5064083;28;20032;-77
2023/01/04 01:02:50;;;;;;;13.80;3.88;;;;;;;;;;5049119;28;20025;-78
2023/01/04 01:05:16;;;;;;;12.48;3.85;;;;;;;;;;5046414;28;20454;-77
2023/01/04 01:07:42;;;;;;;11.13;4.00;;;;;;;;;;5041601;28;20500;-78
2023/01/04 01:10:09;;;;;;;17.40;4.88;;;;;;;;;;5048486;28;20029;-77
2023/01/04 01:12:35;;;;;;;18.30;4.40;;;;;;;;;;5049246;28;20033;-77
2023/01/04 01:15:01;;;;;;;12.93;3.80;;;;;;;;;;5046282;28;20037;-77
2023/01/04 01:17:27;;;;;;;13.98;4.00;;;;;;;;;;5047491;28;20466;-77
2023/01/04 01:19:53;;;;;;;13.25;3.83;;;;;;;;;;5046722;28;20021;-77
2023/01/04 01:22:19;;;;;;;12.38;3.85;;;;;;;;;;5043098;28;20021;-77
2023/01/04 01:24:45;;;;;;;14.73;3.88;;;;;;;;;;5046864;28;20037;-77
2023/01/04 01:27:11;;;;;;;12.82;4.10;;;;;;;;;;5044234;28;20042;-77
2023/01/04 01:29:37;;;;;;;16.50;4.10;;;;;;;;;;5043089;28;20021;-77
2023/01/04 01:32:03;;;;;;;16.05;5.55;;;;;;;;;;5035365;28;20044;-77
2023/01/04 01:34:30;;;;;;;12.20;3.67;;;;;;;;;;5056534;28;20108;-77
2023/01/04 01:36:56;;;;;;;17.83;5.80;;;;;;;;;;5047840;28;20031;-77
2023/01/04 01:39:22;;;;;;;15.45;3.58;;;;;;;;;;5047211;28;20164;-77
2023/01/04 01:41:48;;;;;;;14.13;3.75;;;;;;;;;;5043010;28;20021;-77
2023/01/04 01:44:32;;;;;;;10.23;4.45;;;;;;;;;;5043413;28;20056;-79
2023/01/04 01:46:59;;;;;;;10.52;4.32;;;;;;;;;;5048463;28;20043;-77
2023/01/04 01:49:28;;;;;;;11.38;3.72;;;;;;;;;;5049299;28;20530;-77
2023/01/04 01:51:56;;;;;;;11.60;4.80;;;;;;;;;;5037454;28;20029;-77
2023/01/04 01:54:39;;;;;;;14.60;3.50;;;;;;;;;;5049173;28;20028;-77
2023/01/04 01:57:06;;;;;;;9.70;3.67;;;;;;;;;;5039599;28;20025;-78
2023/01/04 01:59:33;;;;;;;14.93;3.85;;;;;;;;;;5049850;28;20040;-77
2023/01/04 02:01:59;;;;;;;10.68;3.88;;;;;;;;;;5050103;28;20029;-77
2023/01/04 02:04:26;;;;;;;13.23;4.38;;;;;;;;;;5046028;28;20029;-77
2023/01/04 02:06:54;;;;;;;11.77;3.88;;;;;;;;;;5050503;28;20023;-77
2023/01/04 02:09:20;;;;;;;10.18;4.30;;;;;;;;;;5048090;28;20041;-77
2023/01/04 02:11:46;;;;;;;12.63;3.40;;;;;;;;;;5052983;28;20104;-77
2023/01/04 02:14:28;;;;;;;13.32;4.82;;;;;;;;;;5048580;28;20075;-77
2023/01/04 02:16:57;;;;;;;17.75;3.85;;;;;;;;;;5052516;28;20033;-77
2023/01/04 02:19:42;;;;;;;21.63;5.22;;;;;;;;;;5049032;28;20017;-77
2023/01/04 02:22:27;;;;;;;16.38;4.78;;;;;;;;;;5047474;28;20033;-77
2023/01/04 02:25:04;;;;;;;13.47;3.77;;;;;;;;;;5051586;28;20082;-77
2023/01/04 02:27:30;;;;;;;16.42;5.03;;;;;;;;;;5043694;28;20083;-77
2023/01/04 02:29:56;;;;;;;17.50;4.47;;;;;;;;;;5051012;28;20120;-77
2023/01/04 02:32:36;;;;;;;18.05;4.22;;;;;;;;;;5050390;28;20036;-77
2023/01/04 02:35:02;;;;;;;17.15;4.05;;;;;;;;;;5051582;28;20028;-77
2023/01/04 02:37:39;;;;;;;15.38;3.97;;;;;;;;;;5044305;28;20478;-77
2023/01/04 02:40:44;;;;;;;15.48;5.22;;;;;;;;;;5047799;28;20490;-77
2023/01/04 02:46:09;;;;;;;16.08;5.00;;;;;;;;;;5008280;28;20100;-77
2023/01/04 02:51:28;;;;;;;14.27;4.50;;;;;;;;;;5009622;28;20048;-77
2023/01/04 02:53:54;;;;;;;14.52;4.13;;;;;;;;;;5015141;28;20051;-77
2023/01/04 02:56:34;;;;;;;13.75;3.30;;;;;;;;;;5044690;28;20017;-77
2023/01/04 02:59:06;;;;;;;11.18;3.50;;;;;;;;;;5049501;28;20029;-77
2023/01/04 03:07:25;;;;;;;20.35;4.65;;;;;;;;;;5047977;28;20028;-77
2023/01/04 03:09:54;;;;;;;18.98;3.88;;;;;;;;;;5048662;28;20095;-77
2023/01/04 03:12:30;;;;;;;14.10;4.40;;;;;;;;;;5050203;28;20390;-78
2023/01/04 03:15:09;;;;;;;15.60;4.10;;;;;;;;;;5045723;28;20025;-77
2023/01/04 03:17:39;;;;;;;16.50;4.95;;;;;;;;;;5049063;28;20031;-77
2023/01/04 03:20:06;;;;;;;15.38;4.28;;;;;;;;;;5047369;28;20060;-78
2023/01/04 03:36:44;;;;;;;16.15;4.45;;;;;;;;;;5041543;28;20040;-77
2023/01/04 03:50:37;;;;;;;15.10;4.63;;;;;;;;;;5046595;28;20074;-77
2023/01/04 03:53:04;;;;;;;12.55;4.80;;;;;;;;;;5048498;28;20021;-77
2023/01/04 03:55:31;;;;;;;12.40;4.07;;;;;;;;;;5038252;28;20025;-77
2023/01/04 03:57:58;;;;;;;12.52;3.80;;;;;;;;;;5051751;28;20041;-77
2023/01/04 04:00:24;;;;;;;16.85;4.10;;;;;;;;;;5043095;28;20053;-77
2023/01/04 04:02:50;;;;;;;16.75;4.55;;;;;;;;;;5063719;28;20375;-78
2023/01/04 04:08:28;;;;;;;20.88;5.03;;;;;;;;;;5046984;28;20032;-77
2023/01/04 04:10:56;;;;;;;11.98;4.07;;;;;;;;;;5043749;28;20028;-78
2023/01/04 04:13:22;;;;;;;9.85;4.35;;;;;;;;;;5037559;28;20163;-77
2023/01/04 04:15:48;;;;;;;12.35;4.63;;;;;;;;;;5039843;28;20110;-78
2023/01/04 04:18:14;;;;;;;12.60;4.28;;;;;;;;;;5044229;28;20021;-78
2023/01/04 04:20:40;;;;;;;18.30;5.05;;;;;;;;;;5038041;28;20405;-77
2023/01/04 04:23:07;;;;;;;13.85;4.75;;;;;;;;;;5041212;28;20389;-77
2023/01/04 04:25:33;;;;;;;18.40;5.13;;;;;;;;;;5043346;28;20027;-78
2023/01/04 04:27:59;;;;;;;17.98;4.32;;;;;;;;;;5044025;28;20084;-77
2023/01/04 04:30:25;;;;;;;16.13;3.83;;;;;;;;;;5047534;28;20025;-77
2023/01/04 04:32:51;;;;;;;15.75;4.63;;;;;;;;;;5045343;28;20462;-77
2023/01/04 04:35:17;;;;;;;19.42;4.82;;;;;;;;;;5046662;28;20043;-78
2023/01/04 04:37:43;;;;;;;17.98;4.35;;;;;;;;;;5043170;28;20036;-78
2023/01/04 04:41:37;;;;;;;22.60;5.05;;;;;;;;;;5044055;28;20052;-77
2023/01/04 04:42:55;;;;;;;12.90;4.78;;;;;;;;;;5048177;28;20430;-78
2023/01/04 04:45:22;;;;;;;20.92;5.45;;;;;;;;;;5047484;28;20135;-77
2023/01/04 04:47:48;;;;;;;15.27;4.25;;;;;;;;;;5044301;28;20449;-77
2023/01/04 04:50:14;;;;;;;16.17;4.25;;;;;;;;;;5043783;28;20025;-77
2023/01/04 04:52:40;;;;;;;17.83;4.05;;;;;;;;;;5046784;28;20045;-77
2023/01/04 04:55:07;;;;;;;15.10;4.97;;;;;;;;;;5039127;28;20553;-77
2023/01/04 04:57:33;;;;;;;16.42;4.38;;;;;;;;;;5037864;28;20474;-77
2023/01/04 04:59:59;;;;;;;16.42;3.97;;;;;;;;;;5044470;28;20047;-77
2023/01/04 05:02:25;;;;;;;18.85;4.60;;;;;;;;;;5044444;28;20025;-77
2023/01/04 05:04:51;;;;;;;13.38;4.32;;;;;;;;;;5042367;28;20671;-78
2023/01/04 05:07:17;;;;;;;23.88;5.38;;;;;;;;;;5044784;28;20029;-77
2023/01/04 05:09:43;;;;;;;16.40;4.38;;;;;;;;;;5048410;28;20033;-77
2023/01/04 05:14:56;;;;;;;17.50;3.97;;;;;;;;;;5049337;28;20102;-77
2023/01/04 05:17:22;;;;;;;17.13;4.95;;;;;;;;;;5035676;28;20025;-78
2023/01/04 05:19:48;;;;;;;21.38;5.22;;;;;;;;;;5048467;28;20032;-78
2023/01/04 05:22:14;;;;;;;13.55;4.63;;;;;;;;;;5049826;28;20036;-77
2023/01/04 05:24:40;;;;;;;21.35;4.72;;;;;;;;;;5046571;28;20032;-77
2023/01/04 05:27:06;;;;;;;21.35;4.63;;;;;;;;;;5047860;28;20033;-78
2023/01/04 05:32:17;;;;;;;21.27;4.85;;;;;;;;;;5046935;28;20619;-77
2023/01/04 05:34:43;;;;;;;22.40;4.75;;;;;;;;;;5047358;28;20414;-76
2023/01/04 05:37:09;;;;;;;15.68;4.90;;;;;;;;;;5053634;28;20095;-78
2023/01/04 05:39:35;;;;;;;19.33;6.55;;;;;;;;;;5049599;28;20063;-78
2023/01/04 05:44:46;;;;;;;16.63;4.68;;;;;;;;;;5048223;28;20167;-77
2023/01/04 05:47:12;;;;;;;17.17;5.43;;;;;;;;;;5050911;28;20028;-77
2023/01/04 05:49:39;;;;;;;21.08;4.88;;;;;;;;;;5053565;28;20385;-77
2023/01/04 05:52:05;;;;;;;18.48;5.43;;;;;;;;;;5049833;28;20033;-77
2023/01/04 05:54:31;;;;;;;18.50;3.88;;;;;;;;;;5049470;28;20043;-77
2023/01/04 05:56:57;;;;;;;16.50;4.82;;;;;;;;;;5042673;28;20470;-78
2023/01/04 05:59:23;;;;;;;14.38;4.95;;;;;;;;;;5046760;28;20037;-77
2023/01/04 06:01:49;;;;;;;18.15;5.55;;;;;;;;;;5042965;28;20057;-78
2023/01/04 06:04:15;;;;;;;17.10;4.32;;;;;;;;;;5051152;28;20071;-77
2023/01/04 06:06:41;;;;;;;18.85;4.30;;;;;;;;;;5049143;28;20317;-77
2023/01/04 06:09:07;;;;;;;16.90;5.47;;;;;;;;;;5043733;28;20036;-77
2023/01/04 06:11:33;;;;;;;17.35;5.60;;;;;;;;;;5051788;28;20087;-78
2023/01/04 06:14:00;;;;;;;12.57;4.60;;;;;;;;;;5040397;28;20020;-77
2023/01/04 06:16:26;;;;;;;20.27;5.88;;;;;;;;;;5047708;28;20021;-77
2023/01/04 06:18:52;;;;;;;19.83;5.80;;;;;;;;;;5046986;28;20445;-77
2023/01/04 06:21:18;;;;;;;18.27;4.00;;;;;;;;;;5046833;28;20041;-78
2023/01/04 06:23:44;;;;;;;27.88;6.07;;;;;;;;;;5048025;28;20476;-78
2023/01/04 06:26:10;;;;;;;15.65;6.15;;;;;;;;;;5046232;28;20076;-77
2023/01/04 06:28:36;;;;;;;27.30;5.10;;;;;;;;;;5051595;28;20028;-78
2023/01/04 06:31:03;;;;;;;20.05;7.57;;;;;;;;;;5043192;28;20502;-77
2023/01/04 06:33:29;;;;;;;23.08;7.13;;;;;;;;;;5045439;28;20025;-77
2023/01/04 06:35:55;;;;;;;27.27;7.43;;;;;;;;;;5049253;28;20090;-78
2023/01/04 06:38:22;;;;;;;13.65;4.95;;;;;;;;;;5045836;28;20100;-78
2023/01/04 06:40:48;;;;;;;16.75;4.35;;;;;;;;;;5042279;28;20056;-77
2023/01/04 06:43:14;;;;;;;16.30;4.13;;;;;;;;;;5040681;28;20083;-77
2023/01/04 06:45:40;;;;;;;13.27;4.00;;;;;;;;;;5043153;28;20486;-77
2023/01/04 06:48:06;;;;;;;16.50;4.93;;;;;;;;;;5043827;28;20044;-77
2023/01/04 06:50:32;;;;;;;20.20;5.13;;;;;;;;;;5046786;28;20088;-77
2023/01/04 06:52:58;;;;;;;14.30;4.65;;;;;;;;;;5048486;28;20029;-77
2023/01/04 06:55:24;;;;;;;15.55;4.97;;;;;;;;;;5046789;28;20032;-77
2023/01/04 06:57:50;;;;;;;14.90;4.40;;;;;;;;;;5039868;28;20049;-77
2023/01/04 07:00:17;;;;;;;16.50;4.93;;;;;;;;;;5045033;28;20032;-77
2023/01/04 07:02:43;;;;;;;18.67;4.28;;;;;;;;;;5044312;28;20523;-78
2023/01/04 07:05:09;;;;;;;15.93;4.65;;;;;;;;;;5044160;28;20037;-77
2023/01/04 07:07:35;;;;;;;19.33;5.28;;;;;;;;;;5040070;28;20072;-77
2023/01/04 07:10:01;;;;;;;14.52;4.90;;;;;;;;;;5045126;28;20688;-77
2023/01/04 07:12:27;;;;;;;13.40;4.70;;;;;;;;;;5037649;28;20045;-77
2023/01/04 07:14:54;;;;;;;15.88;4.88;;;;;;;;;;5041261;28;20466;-77
2023/01/04 07:17:20;;;;;;;23.65;4.85;;;;;;;;;;5041943;28;20025;-77
2023/01/04 07:19:46;;;;;;;19.00;5.13;;;;;;;;;;5043475;28;20025;-77
2023/01/04 07:22:12;;;;;;;17.92;4.40;;;;;;;;;;5046940;28;20507;-77
2023/01/04 07:24:38;;;;;;;23.08;6.95;;;;;;;;;;5049532;28;20025;-77
2023/01/04 07:27:04;;;;;;;15.77;5.57;;;;;;;;;;5043992;28;20160;-77
2023/01/04 07:29:30;;;;;;;17.25;4.82;;;;;;;;;;5046860;28;20024;-76
2023/01/04 07:31:56;;;;;;;15.32;5.10;;;;;;;;;;5049336;28;20112;-77
2023/01/04 07:34:24;;;;;;;18.10;4.63;;;;;;;;;;5045884;28;20103;-78
2023/01/04 07:36:50;;;;;;;19.60;5.10;;;;;;;;;;5047970;28;20064;-77
2023/01/04 07:39:17;;;;;;;15.82;4.88;;;;;;;;;;5043898;28;20110;-76
2023/01/04 07:41:44;;;;;;;14.30;3.70;;;;;;;;;;5049315;28;20033;-77
2023/01/04 07:44:10;;;;;;;20.92;5.50;;;;;;;;;;5041947;28;20110;-78
2023/01/04 07:46:37;;;;;;;17.05;4.55;;;;;;;;;;5042276;28;20021;-77
2023/01/04 07:49:03;;;;;;;16.98;5.00;;;;;;;;;;5047893;28;20017;-77
2023/01/04 07:51:31;;;;;;;11.05;3.50;;;;;;;;;;5044853;28;20108;-78
2023/01/04 07:53:57;;;;;;;17.70;4.70;;;;;;;;;;5039464;28;20084;-79
2023/01/04 07:56:23;;;;;;;15.40;4.18;;;;;;;;;;5037213;28;20526;-76
2023/01/04 07:58:49;;;;;;;17.88;5.88;;;;;;;;;;5045733;28;20029;-78
2023/01/04 08:01:16;;;;;;;15.70;3.88;;;;;;;;;;5037162;28;20036;-77
2023/01/04 08:03:44;;;;;;;14.60;6.43;;;;;;;;;;5039640;28;20079;-77
2023/01/04 08:06:11;;;;;;;20.75;5.45;;;;;;;;;;5040688;28;20033;-78
2023/01/04 08:08:37;;;;;;;18.35;4.78;;;;;;;;;;5038914;28;20094;-79
2023/01/04 08:11:04;;;;;;;13.63;4.55;;;;;;;;;;5044896;28;20029;-77
2023/01/04 08:13:30;;;;;;;18.38;4.15;;;;;;;;;;5041055;28;20032;-77
2023/01/04 08:15:56;;;;;;;20.25;4.85;;;;;;;;;;5048414;28;20036;-76
2023/01/04 08:18:22;;;;;;;17.13;5.63;;;;;;;;;;5045852;28;20025;-78
2023/01/04 08:20:49;;;;;;;30.13;5.55;;;;;;;;;;5039870;28;20083;-77
2023/01/04 08:23:15;;;;;;;18.13;4.53;;;;;;;;;;5041173;28;20025;-76
2023/01/04 08:25:41;;;;;;;21.38;5.70;;;;;;;;;;5046042;28;20032;-77
2023/01/04 08:28:07;;;;;;;13.63;4.55;;;;;;;;;;5038599;28;20052;-77
2023/01/04 08:30:33;;;;;;;23.45;6.90;;;;;;;;;;5045152;28;20170;-77
2023/01/04 08:32:59;;;;;;;31.52;5.22;;;;;;;;;;5041740;28;20032;-77
2023/01/04 08:35:25;;;;;;;15.70;3.88;;;;;;;;;;5044267;28;20417;-77
2023/01/04 08:37:51;;;;;;;15.38;4.82;;;;;;;;;;5045423;28;20114;-77
2023/01/04 08:40:25;;;;;;;24.02;5.53;;;;;;;;;;5049949;28;20045;-79
2023/01/04 08:42:51;;;;;;;18.63;4.53;;;;;;;;;;5045638;28;20605;-77
2023/01/04 08:45:17;;;;;;;20.65;6.07;;;;;;;;;;5047012;28;20033;-77
2023/01/04 08:47:43;;;;;;;18.55;5.63;;;;;;;;;;5047512;28;20033;-77
2023/01/04 08:50:09;;;;;;;14.93;4.90;;;;;;;;;;5044566;28;20029;-79
2023/01/04 08:52:35;;;;;;;11.73;4.22;;;;;;;;;;5040958;28;20139;-76
2023/01/04 08:55:02;;;;;;;16.15;3.65;;;;;;;;;;5043566;28;20029;-77
2023/01/04 08:57:28;;;;;;;22.83;4.97;;;;;;;;;;5047271;28;20459;-77
2023/01/04 08:59:54;;;;;;;22.58;5.95;;;;;;;;;;5045158;28;20053;-77
2023/01/04 09:02:24;;;;;;;16.90;4.00;;;;;;;;;;5050426;28;20025;-77
2023/01/04 09:04:50;;;;;;;18.35;5.25;;;;;;;;;;5041693;28;20063;-78
2023/01/04 09:07:17;;;;;;;12.25;4.15;;;;;;;;;;5045870;28;20053;-77
2023/01/04 09:09:43;;;;;;;12.40;4.28;;;;;;;;;;5052882;28;20029;-78
2023/01/04 09:12:10;;;;;;;16.02;4.63;;;;;;;;;;5047187;28;20025;-78
2023/01/04 09:14:37;;;;;;;16.13;4.70;;;;;;;;;;5051223;28;20475;-77
2023/01/04 09:17:04;;;;;;;17.17;4.88;;;;;;;;;;5050265;28;20025;-77
2023/01/04 09:19:30;;;;;;;18.67;4.88;;;;;;;;;;5054400;28;20024;-77
2023/01/04 09:21:56;;;;;;;15.98;4.43;;;;;;;;;;5042935;28;20036;-77
2023/01/04 09:24:22;;;;;;;14.60;3.83;;;;;;;;;;5050885;28;20033;-77
2023/01/04 09:26:48;;;;;;;14.30;4.50;;;;;;;;;;5048948;28;20044;-78
2023/01/04 09:29:14;;;;;;;16.48;4.95;;;;;;;;;;5054812;28;20454;-78
2023/01/04 09:31:40;;;;;;;15.65;3.95;;;;;;;;;;5043291;28;20043;-78
2023/01/04 09:34:06;;;;;;;14.10;4.68;;;;;;;;;;5055285;28;20119;-78
2023/01/04 09:36:33;;;;;;;17.15;4.20;;;;;;;;;;5051262;28;20925;-78
2023/01/04 09:38:59;;;;;;;12.93;4.15;;;;;;;;;;5051949;28;20055;-78
2023/01/04 09:41:26;;;;;;;14.02;5.20;;;;;;;;;;5049343;28;20398;-78
2023/01/04 09:43:53;;;;;;;12.13;3.63;;;;;;;;;;5050390;28;20041;-77
2023/01/04 09:46:24;;;;;;;12.77;4.60;;;;;;;;;;5043319;28;20068;-78
2023/01/04 09:48:52;;;;;;;12.43;5.47;;;;;;;;;;5052196;28;20036;-78
2023/01/04 09:51:20;;;;;;;7.30;3.45;;;;;;;;;;5043673;28;20111;-78
2023/01/04 09:53:49;;;;;;;14.73;4.10;;;;;;;;;;5042948;28;20025;-78
2023/01/04 09:56:22;;;;;;;15.60;5.35;;;;;;;;;;5051923;28;20059;-78
2023/01/04 09:58:48;;;;;;;17.75;4.47;;;;;;;;;;5050507;28;20043;-79
2023/01/04 10:01:18;;;;;;;15.77;4.18;;;;;;;;;;5047403;28;20074;-78
2023/01/04 10:03:54;;;;;;;14.38;4.47;;;;;;;;;;5049673;28;20393;-78
2023/01/04 10:06:20;;;;;;;12.90;3.97;;;;;;;;;;5051028;28;20638;-77
2023/01/04 10:08:46;;;;;;;15.50;4.32;;;;;;;;;;5044538;28;20106;-78
2023/01/04 10:11:24;;;;;;;13.43;4.10;;;;;;;;;;5049117;28;20075;-78
2023/01/04 10:14:15;;;;;;;15.60;4.40;;;;;;;;;;5045778;28;20041;-77
2023/01/04 10:16:41;;;;;;;16.48;4.32;;;;;;;;;;5040538;28;20033;-77
2023/01/04 10:19:23;;;;;;;15.80;3.80;;;;;;;;;;5049274;28;20021;-77
2023/01/04 10:22:06;;;;;;;18.02;4.28;;;;;;;;;;5039069;28;20025;-77
2023/01/04 10:24:48;;;;;;;16.48;4.35;;;;;;;;;;5047554;28;20037;-78
2023/01/04 10:27:29;;;;;;;12.93;4.47;;;;;;;;;;5047655;28;20017;-76
2023/01/04 10:30:14;;;;;;;21.92;5.35;;;;;;;;;;5046897;28;20657;-78
2023/01/04 10:32:44;;;;;;;17.08;4.88;;;;;;;;;;5039850;28;20371;-77
2023/01/04 10:35:24;;;;;;;12.23;3.72;;;;;;;;;;5047278;28;20037;-77
2023/01/04 10:37:52;;;;;;;13.63;4.53;;;;;;;;;;5046187;28;20025;-77
2023/01/04 10:40:18;;;;;;;14.15;4.35;;;;;;;;;;5043751;28;20049;-77
2023/01/04 10:42:56;;;;;;;12.35;3.97;;;;;;;;;;5044351;28;20037;-78
2023/01/04 10:45:41;;;;;;;16.50;4.78;;;;;;;;;;5050007;28;20501;-77
2023/01/04 10:48:11;;;;;;;11.30;3.50;;;;;;;;;;5050506;28;20079;-77
2023/01/04 10:50:57;;;;;;;11.35;3.67;;;;;;;;;;5047901;28;20109;-78
2023/01/04 10:53:31;;;;;;;13.25;4.38;;;;;;;;;;5049799;28;20179;-78
2023/01/04 10:56:03;;;;;;;16.77;4.07;;;;;;;;;;5051552;28;20017;-78
2023/01/04 10:58:39;;;;;;;13.38;4.88;;;;;;;;;;5051282;28;20812;-77
2023/01/04 11:01:11;;;;;;;13.40;3.97;;;;;;;;;;5053120;28;20036;-76
2023/01/04 11:03:41;;;;;;;12.50;4.30;;;;;;;;;;5039302;28;20041;-78
2023/01/04 11:06:13;;;;;;;13.30;3.92;;;;;;;;;;5049770;28;20474;-77
2023/01/04 11:08:45;;;;;;;15.02;4.25;;;;;;;;;;5041706;28;20032;-78
2023/01/04 11:11:31;;;;;;;15.20;4.80;;;;;;;;;;5046743;28;20025;-78
2023/01/04 11:13:59;;;;;;;11.63;4.22;;;;;;;;;;5040616;28;20048;-79
2023/01/04 11:16:25;;;;;;;11.73;3.60;;;;;;;;;;5036493;28;20745;-77
2023/01/04 11:18:51;;;;;;;13.10;4.53;;;;;;;;;;5039356;28;20025;-77
2023/01/04 11:21:20;;;;;;;17.08;4.18;;;;;;;;;;5042568;28;20477;-78
2023/01/04 11:23:46;;;;;;;22.17;5.22;;;;;;;;;;5040970;28;20063;-78
2023/01/04 11:26:14;;;;;;;15.57;4.15;;;;;;;;;;5044355;28;20466;-78
2023/01/04 11:28:47;;;;;;;17.60;4.93;;;;;;;;;;5043696;28;20033;-80
2023/01/04 11:31:19;;;;;;;17.33;6.18;;;;;;;;;;5040786;28;20108;-81
2023/01/04 11:34:11;;;;;;;17.52;4.70;;;;;;;;;;5057467;28;20028;-78
2023/01/04 11:36:39;;;;;;;14.57;4.07;;;;;;;;;;5044855;28;20029;-78
2023/01/04 11:39:25;;;;;;;13.75;4.50;;;;;;;;;;5049562;28;20525;-78
2023/01/04 11:41:55;;;;;;;23.83;4.75;;;;;;;;;;5046200;28;20373;-78
2023/01/04 11:44:22;;;;;;;15.48;3.80;;;;;;;;;;5042541;28;20068;-77
2023/01/04 11:47:04;;;;;;;10.30;3.72;;;;;;;;;;5041876;28;20036;-77
2023/01/04 11:49:34;;;;;;;12.68;3.65;;;;;;;;;;5044860;28;20043;-78
2023/01/04 11:52:00;;;;;;;19.73;5.18;;;;;;;;;;5044561;28;20478;-81
2023/01/04 11:54:26;;;;;;;12.65;4.80;;;;;;;;;;5045830;28;20029;-77
2023/01/04 11:57:00;;;;;;;15.77;4.13;;;;;;;;;;5046848;28;20469;-78
2023/01/04 11:59:26;;;;;;;14.73;3.80;;;;;;;;;;5041540;28;20029;-77
2023/01/04 12:02:10;;;;;;;18.42;3.72;;;;;;;;;;5037089;28;20517;-77
2023/01/04 12:04:36;;;;;;;22.02;4.35;;;;;;;;;;5045082;28;20021;-78
2023/01/04 12:07:04;;;;;;;11.65;4.22;;;;;;;;;;5048330;28;20021;-78
2023/01/04 12:09:31;;;;;;;12.98;3.53;;;;;;;;;;5041104;28;20052;-77
2023/01/04 12:12:00;;;;;;;10.27;3.60;;;;;;;;;;5044408;28;20032;-78
2023/01/04 12:14:27;;;;;;;21.58;5.28;;;;;;;;;;5040032;28;20022;-77
2023/01/04 12:17:03;;;;;;;16.33;4.40;;;;;;;;;;5041927;28;20022;-78
2023/01/04 12:19:29;;;;;;;15.43;4.55;;;;;;;;;;5039751;28;20030;-78
2023/01/04 12:21:56;;;;;;;22.73;4.05;;;;;;;;;;5042240;28;20026;-78
2023/01/04 12:24:24;;;;;;;19.00;6.18;;;;;;;;;;5045300;28;20031;-77
2023/01/04 12:26:51;;;;;;;17.33;4.75;;;;;;;;;;5045743;28;20869;-78
2023/01/04 12:29:23;;;;;;;13.23;5.20;;;;;;;;;;5040572;28;20029;-79
2023/01/04 12:31:50;;;;;;;16.75;6.15;;;;;;;;;;5044181;28;20032;-78
2023/01/04 12:34:24;;;;;;;12.90;4.90;;;;;;;;;;5044272;28;20021;-79
2023/01/04 12:36:50;;;;;;;14.77;4.35;;;;;;;;;;5053889;28;20037;-79
2023/01/04 12:39:16;;;;;;;18.83;6.68;;;;;;;;;;5045252;28;20070;-78
2023/01/04 12:41:59;;;;;;;13.55;4.63;;;;;;;;;;5045725;28;20374;-78
2023/01/04 12:44:46;;;;;;;14.13;4.45;;;;;;;;;;5042950;28;20049;-78
2023/01/04 12:50:06;;;;;;;15.15;4.28;;;;;;;;;;5041440;28;20150;-79
2023/01/04 12:52:32;;;;;;;13.68;4.25;;;;;;;;;;5044937;28;20013;-77
2023/01/04 12:55:03;;;;;;;19.67;4.93;;;;;;;;;;5043607;28;20044;-78
2023/01/04 12:57:33;;;;;;;14.77;4.57;;;;;;;;;;5044985;28;20029;-77
2023/01/04 13:00:00;;;;;;;15.18;4.43;;;;;;;;;;5045892;28;20569;-77
2023/01/04 13:02:26;;;;;;;20.65;4.93;;;;;;;;;;5045338;28;20024;-77
2023/01/04 13:05:00;;;;;;;16.80;4.55;;;;;;;;;;5040638;28;20033;-77
2023/01/04 13:07:31;;;;;;;13.30;5.18;;;;;;;;;;5043637;28;20032;-77
2023/01/04 13:10:01;;;;;;;15.35;4.15;;;;;;;;;;5040870;28;20355;-77
2023/01/04 13:12:47;;;;;;;14.88;5.05;;;;;;;;;;5041553;28;20021;-77
2023/01/04 13:15:18;;;;;;;15.65;3.92;;;;;;;;;;5044847;28;20343;-78
2023/01/04 13:17:44;;;;;;;17.20;5.10;;;;;;;;;;5041384;28;20037;-78
2023/01/04 13:20:29;;;;;;;11.82;4.30;;;;;;;;;;5040943;28;20029;-77
2023/01/04 13:22:58;;;;;;;9.40;4.32;;;;;;;;;;5038809;28;20128;-78
2023/01/04 13:25:24;;;;;;;15.23;3.70;;;;;;;;;;5038225;28;20056;-78
2023/01/04 13:27:55;;;;;;;13.32;3.40;;;;;;;;;;5039561;28;20051;-77
2023/01/04 13:30:28;;;;;;;16.80;3.97;;;;;;;;;;5039752;28;20338;-77
2023/01/04 13:32:54;;;;;;;12.82;4.38;;;;;;;;;;5041439;28;20568;-77
2023/01/04 13:35:20;;;;;;;12.13;3.83;;;;;;;;;;5039228;28;20033;-77
2023/01/04 13:37:47;;;;;;;9.77;3.42;;;;;;;;;;5041710;28;20040;-77
2023/01/04 13:40:13;;;;;;;5.82;3.45;;;;;;;;;;5027229;28;20505;-77
2023/01/04 13:42:41;;;;;;;9.13;2.85;;;;;;;;;;5041269;28;20433;-77
2023/01/04 13:45:13;;;;;;;9.80;3.05;;;;;;;;;;5041503;28;20029;-76
2023/01/04 13:47:41;;;;;;;10.93;3.45;;;;;;;;;;5042195;28;20148;-78
2023/01/04 13:50:17;;;;;;;9.05;2.60;;;;;;;;;;5040480;28;20482;-77
2023/01/04 13:52:44;;;;;;;10.48;3.55;;;;;;;;;;5042633;28;20371;-77
2023/01/04 13:55:19;;;;;;;10.55;2.88;;;;;;;;;;5044801;28;20087;-79
2023/01/04 13:57:52;;;;;;;14.02;2.97;;;;;;;;;;5047043;28;20028;-79
2023/01/04 14:00:19;;;;;;;5.82;2.83;;;;;;;;;;5048441;28;20028;-77
2023/01/04 14:02:45;;;;;;;7.07;2.85;;;;;;;;;;5048006;28;20028;-78
2023/01/04 14:05:16;;;;;;;11.20;3.58;;;;;;;;;;5042652;28;20037;-77
2023/01/04 14:07:43;;;;;;;10.88;3.55;;;;;;;;;;5049972;28;20049;-77
2023/01/04 14:10:16;;;;;;;7.03;3.20;;;;;;;;;;5046811;28;20052;-77
2023/01/04 14:12:44;;;;;;;16.05;3.38;;;;;;;;;;5046857;28;20116;-78
2023/01/04 14:15:21;;;;;;;10.80;2.78;;;;;;;;;;5046177;28;20436;-78
2023/01/04 14:17:49;;;;;;;8.27;2.97;;;;;;;;;;5048186;28;20063;-77
2023/01/04 14:20:15;;;;;;;10.90;3.58;;;;;;;;;;5049707;28;20029;-76
2023/01/04 14:22:42;;;;;;;14.25;3.78;;;;;;;;;;5046971;28;20049;-77
2023/01/04 14:25:26;;;;;;;13.02;5.45;;;;;;;;;;5045229;28;20044;-77
2023/01/04 14:28:13;;;;;;;13.40;5.40;;;;;;;;;;5051215;28;20032;-77
2023/01/04 14:30:39;;;;;;;12.07;4.43;;;;;;;;;;5045360;28;20029;-77
2023/01/04 14:33:16;;;;;;;13.38;3.92;;;;;;;;;;5046556;28;20027;-77
2023/01/04 14:35:42;;;;;;;12.13;4.53;;;;;;;;;;5045209;28;20040;-77
2023/01/04 14:38:17;;;;;;;24.10;11.10;;;;;;;;;;5042196;28;20470;-77
2023/01/04 14:40:43;;;;;;;39.35;19.63;;;;;;;;;;5046600;28;20061;-77
2023/01/04 14:43:28;;;;;;;15.05;7.25;;;;;;;;;;5062270;28;20029;-78
2023/01/04 14:45:54;;;;;;;15.32;7.45;;;;;;;;;;5044056;28;20024;-77
2023/01/04 14:48:20;;;;;;;26.33;11.27;;;;;;;;;;5046310;28;20419;-77
2023/01/04 14:50:46;;;;;;;16.65;9.60;;;;;;;;;;5046901;28;20029;-77
2023/01/04 14:53:17;;;;;;;43.40;22.25;;;;;;;;;;5039885;28;20104;-77
2023/01/04 14:55:43;;;;;;;24.90;13.75;;;;;;;;;;5045612;28;20017;-77
2023/01/04 14:58:09;;;;;;;25.48;13.35;;;;;;;;;;5063813;28;20021;-77
2023/01/04 15:00:36;;;;;;;19.98;8.75;;;;;;;;;;5046159;28;20053;-77
2023/01/04 15:03:02;;;;;;;14.95;9.38;;;;;;;;;;5046627;28;20025;-78
2023/01/04 15:05:28;;;;;;;18.63;6.25;;;;;;;;;;5044247;28;20029;-77
2023/01/04 15:07:54;;;;;;;16.38;7.43;;;;;;;;;;5044426;28;20020;-77
2023/01/04 15:10:21;;;;;;;14.05;6.22;;;;;;;;;;5046613;28;20051;-77
2023/01/04 15:12:48;;;;;;;20.13;6.47;;;;;;;;;;5046896;28;20032;-78
2023/01/04 15:15:14;;;;;;;26.58;12.55;;;;;;;;;;5045138;28;20021;-77
2023/01/04 15:17:40;;;;;;;17.00;5.30;;;;;;;;;;5060977;28;20089;-77
2023/01/04 15:20:06;;;;;;;19.63;6.25;;;;;;;;;;5045764;28;20085;-79
2023/01/04 15:22:32;;;;;;;15.27;6.68;;;;;;;;;;5047305;28;20516;-77
2023/01/04 15:24:59;;;;;;;13.52;4.72;;;;;;;;;;5046562;28;20037;-77
2023/01/04 15:27:25;;;;;;;11.32;7.03;;;;;;;;;;5040692;28;20622;-77
2023/01/04 15:29:51;;;;;;;11.75;4.72;;;;;;;;;;5045540;28;20103;-78
2023/01/04 15:32:17;;;;;;;15.13;5.35;;;;;;;;;;5042784;28;20544;-77